sensor_id;sensor_type;location;lat;lon;timestamp;P1;durP1;ratioP1;P2;durP2;ratioP2
12469;SDS011;36499;46.484;13.832;2023-01-06T00:01:08;2.13;;;1.60;;
12469;SDS011;36499;46.484;13.832;2023-01-06T00:03:37;2.73;;;1.70;;
12469;SDS011;36499;46.484;13.832;2023-01-06T00:06:05;2.93;;;1.67;;
12469;SDS011;36499;46.484;13.832;2023-01-06T00:08:41;1.83;;;1.30;;
12469;SDS011;36499;46.484;13.832;2023-01-06T00:11:09;2.07;;;1.30;;
12469;SDS011;36499;46.484;13.832;2023-01-06T00:13:39;2.30;;;1.30;;
12469;SDS011;36499;46.484;13.832;2023-01-06T00:16:08;4.20;;;2.40;;
12469;SDS011;36499;46.484;13.832;2023-01-06T00:18:37;2.50;;;1.80;;
12469;SDS011;36499;46.484;13.832;2023-01-06T00:21:05;15.10;;;10.47;;
12469;SDS011;36499;46.484;13.832;2023-01-06T00:23:33;3.80;;;2.13;;
12469;SDS011;36499;46.484;13.832;2023-01-06T00:26:03;2.20;;;1.53;;
12469;SDS011;36499;46.484;13.832;2023-01-06T00:28:33;2.50;;;1.60;;
12469;SDS011;36499;46.484;13.832;2023-01-06T00:31:04;1.60;;;1.33;;
12469;SDS011;36499;46.484;13.832;2023-01-06T00:33:33;2.00;;;1.73;;
12469;SDS011;36499;46.484;13.832;2023-01-06T00:36:00;1.70;;;1.40;;
12469;SDS011;36499;46.484;13.832;2023-01-06T00:38:28;3.83;;;2.33;;
12469;SDS011;36499;46.484;13.832;2023-01-06T00:40:55;3.33;;;2.20;;
12469;SDS011;36499;46.484;13.832;2023-01-06T00:43:24;4.57;;;2.70;;
12469;SDS011;36499;46.484;13.832;2023-01-06T00:45:56;2.33;;;1.50;;
12469;SDS011;36499;46.484;13.832;2023-01-06T00:48:26;1.87;;;1.60;;
12469;SDS011;36499;46.484;13.832;2023-01-06T00:50:58;3.43;;;1.60;;
12469;SDS011;36499;46.484;13.832;2023-01-06T00:53:26;1.43;;;1.30;;
12469;SDS011;36499;46.484;13.832;2023-01-06T00:55:58;1.80;;;1.27;;
12469;SDS011;36499;46.484;13.832;2023-01-06T00:58:29;2.30;;;1.40;;
12469;SDS011;36499;46.484;13.832;2023-01-06T01:00:57;7.70;;;4.50;;
12469;SDS011;36499;46.484;13.832;2023-01-06T01:03:24;3.87;;;2.00;;
12469;SDS011;36499;46.484;13.832;2023-01-06T01:05:51;3.80;;;2.10;;
12469;SDS011;36499;46.484;13.832;2023-01-06T01:08:18;2.43;;;1.60;;
12469;SDS011;36499;46.484;13.832;2023-01-06T01:10:45;2.47;;;1.40;;
12469;SDS011;36499;46.484;13.832;2023-01-06T01:13:12;11.27;;;4.90;;
12469;SDS011;36499;46.484;13.832;2023-01-06T01:15:40;7.70;;;3.30;;
12469;SDS011;36499;46.484;13.832;2023-01-06T01:18:07;6.23;;;3.77;;
12469;SDS011;36499;46.484;13.832;2023-01-06T01:20:35;6.30;;;4.33;;
12469;SDS011;36499;46.484;13.832;2023-01-06T01:23:03;5.07;;;3.13;;
12469;SDS011;36499;46.484;13.832;2023-01-06T01:25:30;3.60;;;2.20;;
12469;SDS011;36499;46.484;13.832;2023-01-06T01:27:57;2.23;;;1.70;;
12469;SDS011;36499;46.484;13.832;2023-01-06T01:30:24;6.87;;;3.63;;
12469;SDS011;36499;46.484;13.832;2023-01-06T01:32:52;2.30;;;1.67;;
12469;SDS011;36499;46.484;13.832;2023-01-06T01:35:19;2.33;;;1.63;;
12469;SDS011;36499;46.484;13.832;2023-01-06T01:37:47;2.20;;;1.77;;
12469;SDS011;36499;46.484;13.832;2023-01-06T01:40:14;3.00;;;1.97;;
12469;SDS011;36499;46.484;13.832;2023-01-06T01:42:41;2.63;;;2.00;;
12469;SDS011;36499;46.484;13.832;2023-01-06T01:45:16;1.87;;;1.40;;
12469;SDS011;36499;46.484;13.832;2023-01-06T01:47:50;2.00;;;1.60;;
12469;SDS011;36499;46.484;13.832;2023-01-06T01:50:27;1.97;;;1.50;;
12469;SDS011;36499;46.484;13.832;2023-01-06T01:53:01;1.73;;;1.30;;
12469;SDS011;36499;46.484;13.832;2023-01-06T01:55:33;2.17;;;1.57;;
12469;SDS011;36499;46.484;13.832;2023-01-06T01:58:03;2.40;;;1.63;;
12469;SDS011;36499;46.484;13.832;2023-01-06T02:00:39;1.97;;;1.50;;
12469;SDS011;36499;46.484;13.832;2023-01-06T02:03:10;2.30;;;1.80;;
12469;SDS011;36499;46.484;13.832;2023-01-06T02:05:40;3.20;;;1.93;;
12469;SDS011;36499;46.484;13.832;2023-01-06T02:08:17;2.80;;;2.03;;
12469;SDS011;36499;46.484;13.832;2023-01-06T02:10:53;2.53;;;1.90;;
12469;SDS011;36499;46.484;13.832;2023-01-06T02:13:20;4.27;;;2.23;;
12469;SDS011;36499;46.484;13.832;2023-01-06T02:15:48;2.20;;;1.80;;
12469;SDS011;36499;46.484;13.832;2023-01-06T02:18:28;4.30;;;2.00;;
12469;SDS011;36499;46.484;13.832;2023-01-06T02:21:18;4.63;;;2.20;;
12469;SDS011;36499;46.484;13.832;2023-01-06T02:27:42;4.90;;;2.70;;
12469;SDS011;36499;46.484;13.832;2023-01-06T02:31:11;3.43;;;2.10;;
12469;SDS011;36499;46.484;13.832;2023-01-06T02:34:04;2.63;;;1.90;;
12469;SDS011;36499;46.484;13.832;2023-01-06T02:36:48;2.40;;;1.60;;
12469;SDS011;36499;46.484;13.832;2023-01-06T02:39:29;3.80;;;1.93;;
12469;SDS011;36499;46.484;13.832;2023-01-06T02:42:13;3.13;;;1.60;;
12469;SDS011;36499;46.484;13.832;2023-01-06T02:44:48;4.30;;;1.90;;
12469;SDS011;36499;46.484;13.832;2023-01-06T02:47:51;4.43;;;1.53;;
12469;SDS011;36499;46.484;13.832;2023-01-06T02:50:34;1.50;;;1.40;;
12469;SDS011;36499;46.484;13.832;2023-01-06T02:53:10;1.97;;;1.30;;
12469;SDS011;36499;46.484;13.832;2023-01-06T02:55:48;1.70;;;1.40;;
12469;SDS011;36499;46.484;13.832;2023-01-06T02:58:21;1.50;;;1.17;;
12469;SDS011;36499;46.484;13.832;2023-01-06T03:01:02;1.43;;;1.17;;
12469;SDS011;36499;46.484;13.832;2023-01-06T03:03:39;2.63;;;1.40;;
12469;SDS011;36499;46.484;13.832;2023-01-06T03:06:13;1.37;;;1.10;;
12469;SDS011;36499;46.484;13.832;2023-01-06T03:08:44;2.53;;;1.70;;
12469;SDS011;36499;46.484;13.832;2023-01-06T03:11:14;2.23;;;1.40;;
12469;SDS011;36499;46.484;13.832;2023-01-06T03:13:43;1.13;;;1.03;;
12469;SDS011;36499;46.484;13.832;2023-01-06T03:16:15;3.10;;;1.90;;
12469;SDS011;36499;46.484;13.832;2023-01-06T03:18:45;3.37;;;2.40;;
12469;SDS011;36499;46.484;13.832;2023-01-06T03:21:17;5.67;;;3.10;;
12469;SDS011;36499;46.484;13.832;2023-01-06T03:23:48;2.80;;;1.60;;
12469;SDS011;36499;46.484;13.832;2023-01-06T03:26:15;2.27;;;1.50;;
12469;SDS011;36499;46.484;13.832;2023-01-06T03:28:42;4.27;;;2.77;;
12469;SDS011;36499;46.484;13.832;2023-01-06T03:31:12;3.63;;;2.00;;
12469;SDS011;36499;46.484;13.832;2023-01-06T03:33:51;4.00;;;2.00;;
12469;SDS011;36499;46.484;13.832;2023-01-06T03:36:27;3.63;;;2.30;;
12469;SDS011;36499;46.484;13.832;2023-01-06T03:39:07;1.80;;;1.33;;
12469;SDS011;36499;46.484;13.832;2023-01-06T03:41:44;2.60;;;1.73;;
12469;SDS011;36499;46.484;13.832;2023-01-06T03:44:39;2.97;;;1.83;;
12469;SDS011;36499;46.484;13.832;2023-01-06T03:47:17;3.63;;;2.40;;
12469;SDS011;36499;46.484;13.832;2023-01-06T03:49:53;2.97;;;2.00;;
12469;SDS011;36499;46.484;13.832;2023-01-06T03:52:29;2.13;;;1.77;;
12469;SDS011;36499;46.484;13.832;2023-01-06T03:55:04;1.20;;;1.10;;
12469;SDS011;36499;46.484;13.832;2023-01-06T03:57:40;3.50;;;1.00;;
12469;SDS011;36499;46.484;13.832;2023-01-06T04:00:12;1.10;;;1.00;;
12469;SDS011;36499;46.484;13.832;2023-01-06T04:02:45;1.67;;;1.20;;
12469;SDS011;36499;46.484;13.832;2023-01-06T04:05:15;1.63;;;1.10;;
12469;SDS011;36499;46.484;13.832;2023-01-06T04:07:45;0.90;;;0.90;;
12469;SDS011;36499;46.484;13.832;2023-01-06T04:10:14;1.10;;;0.90;;
12469;SDS011;36499;46.484;13.832;2023-01-06T04:12:45;1.20;;;0.93;;
12469;SDS011;36499;46.484;13.832;2023-01-06T04:15:23;1.00;;;0.90;;
12469;SDS011;36499;46.484;13.832;2023-01-06T04:17:53;1.10;;;0.90;;
12469;SDS011;36499;46.484;13.832;2023-01-06T04:20:22;1.00;;;0.90;;
12469;SDS011;36499;46.484;13.832;2023-01-06T04:22:53;2.43;;;1.30;;
12469;SDS011;36499;46.484;13.832;2023-01-06T04:25:22;1.23;;;1.13;;
12469;SDS011;36499;46.484;13.832;2023-01-06T04:27:50;1.13;;;1.00;;
12469;SDS011;36499;46.484;13.832;2023-01-06T04:30:18;3.00;;;0.83;;
12469;SDS011;36499;46.484;13.832;2023-01-06T04:32:45;1.00;;;0.93;;
12469;SDS011;36499;46.484;13.832;2023-01-06T04:35:12;0.67;;;0.67;;
12469;SDS011;36499;46.484;13.832;2023-01-06T04:37:41;1.10;;;1.00;;
12469;SDS011;36499;46.484;13.832;2023-01-06T04:40:08;1.60;;;1.20;;
12469;SDS011;36499;46.484;13.832;2023-01-06T04:42:38;1.40;;;1.00;;
12469;SDS011;36499;46.484;13.832;2023-01-06T04:45:18;2.30;;;1.70;;
12469;SDS011;36499;46.484;13.832;2023-01-06T04:47:47;1.00;;;0.90;;
12469;SDS011;36499;46.484;13.832;2023-01-06T04:50:14;3.73;;;1.00;;
12469;SDS011;36499;46.484;13.832;2023-01-06T04:52:43;2.07;;;0.90;;
12469;SDS011;36499;46.484;13.832;2023-01-06T04:55:10;2.57;;;0.77;;
12469;SDS011;36499;46.484;13.832;2023-01-06T04:57:37;1.60;;;0.80;;
12469;SDS011;36499;46.484;13.832;2023-01-06T05:00:05;2.23;;;1.30;;
12469;SDS011;36499;46.484;13.832;2023-01-06T05:02:33;1.30;;;0.90;;
12469;SDS011;36499;46.484;13.832;2023-01-06T05:05:00;1.50;;;1.00;;
12469;SDS011;36499;46.484;13.832;2023-01-06T05:07:27;0.80;;;0.80;;
12469;SDS011;36499;46.484;13.832;2023-01-06T05:09:57;0.93;;;0.60;;
12469;SDS011;36499;46.484;13.832;2023-01-06T05:12:24;1.00;;;0.87;;
12469;SDS011;36499;46.484;13.832;2023-01-06T05:14:51;0.77;;;0.73;;
12469;SDS011;36499;46.484;13.832;2023-01-06T05:17:18;1.00;;;0.90;;
12469;SDS011;36499;46.484;13.832;2023-01-06T05:19:46;1.07;;;0.90;;
12469;SDS011;36499;46.484;13.832;2023-01-06T05:22:13;0.70;;;0.67;;
12469;SDS011;36499;46.484;13.832;2023-01-06T05:24:41;0.80;;;0.80;;
12469;SDS011;36499;46.484;13.832;2023-01-06T05:27:09;0.80;;;0.80;;
12469;SDS011;36499;46.484;13.832;2023-01-06T05:29:36;1.27;;;0.90;;
12469;SDS011;36499;46.484;13.832;2023-01-06T05:32:04;0.80;;;0.80;;
12469;SDS011;36499;46.484;13.832;2023-01-06T05:34:31;1.23;;;0.90;;
12469;SDS011;36499;46.484;13.832;2023-01-06T05:36:59;2.80;;;1.00;;
12469;SDS011;36499;46.484;13.832;2023-01-06T05:39:26;1.23;;;1.00;;
12469;SDS011;36499;46.484;13.832;2023-01-06T05:41:53;1.30;;;1.17;;
12469;SDS011;36499;46.484;13.832;2023-01-06T05:44:23;2.30;;;1.47;;
12469;SDS011;36499;46.484;13.832;2023-01-06T05:46:50;6.70;;;3.70;;
12469;SDS011;36499;46.484;13.832;2023-01-06T05:49:20;2.07;;;1.50;;
12469;SDS011;36499;46.484;13.832;2023-01-06T05:51:47;3.43;;;2.20;;
12469;SDS011;36499;46.484;13.832;2023-01-06T05:54:14;1.70;;;1.30;;
12469;SDS011;36499;46.484;13.832;2023-01-06T05:56:41;3.23;;;1.60;;
12469;SDS011;36499;46.484;13.832;2023-01-06T05:59:08;1.80;;;1.10;;
12469;SDS011;36499;46.484;13.832;2023-01-06T06:01:39;1.97;;;1.30;;
12469;SDS011;36499;46.484;13.832;2023-01-06T06:04:07;2.03;;;1.67;;
12469;SDS011;36499;46.484;13.832;2023-01-06T06:06:36;2.27;;;1.60;;
12469;SDS011;36499;46.484;13.832;2023-01-06T06:09:03;2.20;;;1.40;;
12469;SDS011;36499;46.484;13.832;2023-01-06T06:11:33;1.60;;;1.40;;
12469;SDS011;36499;46.484;13.832;2023-01-06T06:14:00;1.90;;;1.40;;
12469;SDS011;36499;46.484;13.832;2023-01-06T06:16:27;2.20;;;1.30;;
12469;SDS011;36499;46.484;13.832;2023-01-06T06:18:57;1.80;;;1.30;;
12469;SDS011;36499;46.484;13.832;2023-01-06T06:21:25;5.73;;;3.10;;
12469;SDS011;36499;46.484;13.832;2023-01-06T06:23:54;5.33;;;3.93;;
12469;SDS011;36499;46.484;13.832;2023-01-06T06:26:24;3.90;;;2.90;;
12469;SDS011;36499;46.484;13.832;2023-01-06T06:28:52;2.60;;;2.10;;
12469;SDS011;36499;46.484;13.832;2023-01-06T06:31:20;3.70;;;2.73;;
12469;SDS011;36499;46.484;13.832;2023-01-06T06:33:49;5.33;;;3.40;;
12469;SDS011;36499;46.484;13.832;2023-01-06T06:36:19;6.20;;;4.13;;
12469;SDS011;36499;46.484;13.832;2023-01-06T06:38:47;4.33;;;3.40;;
12469;SDS011;36499;46.484;13.832;2023-01-06T06:41:16;5.67;;;4.03;;
12469;SDS011;36499;46.484;13.832;2023-01-06T06:43:45;54.10;;;27.53;;
12469;SDS011;36499;46.484;13.832;2023-01-06T06:46:14;51.87;;;27.50;;
12469;SDS011;36499;46.484;13.832;2023-01-06T06:48:41;50.03;;;26.37;;
12469;SDS011;36499;46.484;13.832;2023-01-06T06:51:09;33.73;;;18.70;;
12469;SDS011;36499;46.484;13.832;2023-01-06T06:53:40;25.00;;;13.57;;
12469;SDS011;36499;46.484;13.832;2023-01-06T06:56:07;12.30;;;6.87;;
12469;SDS011;36499;46.484;13.832;2023-01-06T06:58:37;11.93;;;6.83;;
12469;SDS011;36499;46.484;13.832;2023-01-06T07:01:04;10.30;;;6.63;;
12469;SDS011;36499;46.484;13.832;2023-01-06T07:03:33;4.20;;;3.30;;
12469;SDS011;36499;46.484;13.832;2023-01-06T07:06:00;3.40;;;2.37;;
12469;SDS011;36499;46.484;13.832;2023-01-06T07:08:28;3.23;;;2.37;;
12469;SDS011;36499;46.484;13.832;2023-01-06T07:10:58;8.80;;;3.57;;
12469;SDS011;36499;46.484;13.832;2023-01-06T07:13:28;6.17;;;3.17;;
12469;SDS011;36499;46.484;13.832;2023-01-06T07:15:56;7.90;;;3.60;;
12469;SDS011;36499;46.484;13.832;2023-01-06T07:18:23;5.90;;;3.90;;
12469;SDS011;36499;46.484;13.832;2023-01-06T07:20:51;6.90;;;4.10;;
12469;SDS011;36499;46.484;13.832;2023-01-06T07:23:18;5.43;;;4.10;;
12469;SDS011;36499;46.484;13.832;2023-01-06T07:33:12;15.57;;;10.00;;
12469;SDS011;36499;46.484;13.832;2023-01-06T07:35:40;11.93;;;6.73;;
12469;SDS011;36499;46.484;13.832;2023-01-06T07:38:08;7.10;;;4.40;;
12469;SDS011;36499;46.484;13.832;2023-01-06T07:40:37;5.83;;;3.80;;
12469;SDS011;36499;46.484;13.832;2023-01-06T07:43:06;4.50;;;3.27;;
12469;SDS011;36499;46.484;13.832;2023-01-06T07:45:35;5.07;;;3.87;;
12469;SDS011;36499;46.484;13.832;2023-01-06T07:48:08;6.03;;;4.23;;
12469;SDS011;36499;46.484;13.832;2023-01-06T07:50:37;6.37;;;4.80;;
12469;SDS011;36499;46.484;13.832;2023-01-06T07:53:05;7.30;;;4.50;;
12469;SDS011;36499;46.484;13.832;2023-01-06T07:55:35;9.37;;;6.33;;
12469;SDS011;36499;46.484;13.832;2023-01-06T07:58:04;9.87;;;6.23;;
12469;SDS011;36499;46.484;13.832;2023-01-06T08:00:42;11.83;;;8.23;;
12469;SDS011;36499;46.484;13.832;2023-01-06T08:03:12;12.20;;;7.23;;
12469;SDS011;36499;46.484;13.832;2023-01-06T08:05:42;11.20;;;8.20;;
12469;SDS011;36499;46.484;13.832;2023-01-06T08:08:09;11.87;;;6.80;;
12469;SDS011;36499;46.484;13.832;2023-01-06T08:10:38;10.30;;;6.50;;
12469;SDS011;36499;46.484;13.832;2023-01-06T08:13:06;6.90;;;5.23;;
12469;SDS011;36499;46.484;13.832;2023-01-06T08:15:34;7.10;;;4.70;;
12469;SDS011;36499;46.484;13.832;2023-01-06T08:18:03;8.03;;;4.60;;
12469;SDS011;36499;46.484;13.832;2023-01-06T08:20:30;8.87;;;5.93;;
12469;SDS011;36499;46.484;13.832;2023-01-06T08:22:59;12.23;;;6.90;;
12469;SDS011;36499;46.484;13.832;2023-01-06T08:25:27;14.20;;;8.50;;
12469;SDS011;36499;46.484;13.832;2023-01-06T08:27:59;16.17;;;8.80;;
12469;SDS011;36499;46.484;13.832;2023-01-06T08:30:43;16.33;;;9.70;;
12469;SDS011;36499;46.484;13.832;2023-01-06T08:33:12;13.40;;;7.80;;
12469;SDS011;36499;46.484;13.832;2023-01-06T08:39:22;12.07;;;7.07;;
12469;SDS011;36499;46.484;13.832;2023-01-06T08:41:56;11.60;;;7.43;;
12469;SDS011;36499;46.484;13.832;2023-01-06T08:44:23;18.17;;;8.50;;
12469;SDS011;36499;46.484;13.832;2023-01-06T08:47:00;14.27;;;8.80;;
12469;SDS011;36499;46.484;13.832;2023-01-06T08:49:27;17.73;;;8.80;;
12469;SDS011;36499;46.484;13.832;2023-01-06T08:51:55;14.47;;;8.73;;
12469;SDS011;36499;46.484;13.832;2023-01-06T08:54:24;17.40;;;10.57;;
12469;SDS011;36499;46.484;13.832;2023-01-06T09:00:30;18.87;;;11.77;;
12469;SDS011;36499;46.484;13.832;2023-01-06T14:12:57;11.10;;;6.70;;
12469;SDS011;36499;46.484;13.832;2023-01-06T14:29:53;28.67;;;17.47;;
12469;SDS011;36499;46.484;13.832;2023-01-06T14:32:59;32.10;;;18.50;;
12469;SDS011;36499;46.484;13.832;2023-01-06T14:35:48;19.63;;;13.80;;
12469;SDS011;36499;46.484;13.832;2023-01-06T14:38:28;16.27;;;11.97;;
12469;SDS011;36499;46.484;13.832;2023-01-06T14:45:22;21.40;;;9.07;;
12469;SDS011;36499;46.484;13.832;2023-01-06T14:47:53;21.57;;;10.40;;
12469;SDS011;36499;46.484;13.832;2023-01-06T14:50:28;17.33;;;7.07;;
12469;SDS011;36499;46.484;13.832;2023-01-06T14:52:58;9.57;;;4.87;;
12469;SDS011;36499;46.484;13.832;2023-01-06T14:55:30;7.80;;;4.07;;
12469;SDS011;36499;46.484;13.832;2023-01-06T14:58:03;135.87;;;69.23;;
12469;SDS011;36499;46.484;13.832;2023-01-06T15:00:32;63.03;;;36.00;;
12469;SDS011;36499;46.484;13.832;2023-01-06T15:03:01;33.20;;;19.07;;
12469;SDS011;36499;46.484;13.832;2023-01-06T15:08:49;28.70;;;13.63;;
12469;SDS011;36499;46.484;13.832;2023-01-06T15:11:24;35.60;;;21.00;;
12469;SDS011;36499;46.484;13.832;2023-01-06T15:13:54;8.23;;;5.60;;
12469;SDS011;36499;46.484;13.832;2023-01-06T15:16:47;22.90;;;11.93;;
12469;SDS011;36499;46.484;13.832;2023-01-06T15:19:18;13.63;;;8.17;;
12469;SDS011;36499;46.484;13.832;2023-01-06T15:21:47;35.53;;;17.03;;
12469;SDS011;36499;46.484;13.832;2023-01-06T15:24:18;33.20;;;17.23;;
12469;SDS011;36499;46.484;13.832;2023-01-06T15:26:48;21.03;;;10.93;;
12469;SDS011;36499;46.484;13.832;2023-01-06T15:29:18;145.47;;;53.53;;
12469;SDS011;36499;46.484;13.832;2023-01-06T15:31:49;63.77;;;25.97;;
12469;SDS011;36499;46.484;13.832;2023-01-06T15:34:19;26.20;;;11.93;;
12469;SDS011;36499;46.484;13.832;2023-01-06T15:39:48;14.70;;;8.07;;
12469;SDS011;36499;46.484;13.832;2023-01-06T15:42:18;16.17;;;8.70;;
12469;SDS011;36499;46.484;13.832;2023-01-06T15:44:53;42.93;;;22.03;;
12469;SDS011;36499;46.484;13.832;2023-01-06T15:47:26;42.87;;;21.10;;
12469;SDS011;36499;46.484;13.832;2023-01-06T15:49:59;51.83;;;25.73;;
12469;SDS011;36499;46.484;13.832;2023-01-06T15:52:31;31.87;;;16.97;;
12469;SDS011;36499;46.484;13.832;2023-01-06T15:55:05;78.77;;;32.77;;
12469;SDS011;36499;46.484;13.832;2023-01-06T15:57:49;38.43;;;18.97;;
12469;SDS011;36499;46.484;13.832;2023-01-06T16:00:23;30.10;;;15.90;;
12469;SDS011;36499;46.484;13.832;2023-01-06T16:02:54;17.57;;;10.50;;
12469;SDS011;36499;46.484;13.832;2023-01-06T16:05:36;22.30;;;13.17;;
12469;SDS011;36499;46.484;13.832;2023-01-06T16:08:15;26.30;;;14.10;;
12469;SDS011;36499;46.484;13.832;2023-01-06T16:10:49;19.37;;;10.50;;
12469;SDS011;36499;46.484;13.832;2023-01-06T16:14:22;17.57;;;10.13;;
12469;SDS011;36499;46.484;13.832;2023-01-06T16:16:53;13.73;;;7.53;;
12469;SDS011;36499;46.484;13.832;2023-01-06T16:23:21;23.20;;;13.30;;
12469;SDS011;36499;46.484;13.832;2023-01-06T16:26:03;17.97;;;11.73;;
12469;SDS011;36499;46.484;13.832;2023-01-06T16:28:35;22.40;;;13.17;;
12469;SDS011;36499;46.484;13.832;2023-01-06T16:34:51;19.07;;;11.07;;
12469;SDS011;36499;46.484;13.832;2023-01-06T16:37:20;19.17;;;11.53;;
12469;SDS011;36499;46.484;13.832;2023-01-06T16:43:29;21.80;;;13.03;;
12469;SDS011;36499;46.484;13.832;2023-01-06T16:45:57;24.47;;;12.73;;
12469;SDS011;36499;46.484;13.832;2023-01-06T16:48:43;20.13;;;11.83;;
12469;SDS011;36499;46.484;13.832;2023-01-06T17:09:38;29.80;;;17.77;;
12469;SDS011;36499;46.484;13.832;2023-01-06T17:12:07;22.40;;;13.67;;
12469;SDS011;36499;46.484;13.832;2023-01-06T17:14:58;20.30;;;13.30;;
12469;SDS011;36499;46.484;13.832;2023-01-06T17:17:26;19.60;;;12.33;;
12469;SDS011;36499;46.484;13.832;2023-01-06T17:19:54;20.73;;;12.33;;
12469;SDS011;36499;46.484;13.832;2023-01-06T17:22:22;27.40;;;14.47;;
12469;SDS011;36499;46.484;13.832;2023-01-06T17:24:56;24.13;;;15.23;;
12469;SDS011;36499;46.484;13.832;2023-01-06T17:27:34;21.27;;;13.03;;
12469;SDS011;36499;46.484;13.832;2023-01-06T17:30:01;24.77;;;14.03;;
12469;SDS011;36499;46.484;13.832;2023-01-06T17:32:40;23.37;;;14.23;;
12469;SDS011;36499;46.484;13.832;2023-01-06T17:35:15;24.00;;;15.07;;
12469;SDS011;36499;46.484;13.832;2023-01-06T17:37:51;25.97;;;15.27;;
12469;SDS011;36499;46.484;13.832;2023-01-06T17:40:20;25.00;;;15.53;;
12469;SDS011;36499;46.484;13.832;2023-01-06T17:42:59;21.67;;;13.80;;
12469;SDS011;36499;46.484;13.832;2023-01-06T17:45:28;21.47;;;12.80;;
12469;SDS011;36499;46.484;13.832;2023-01-06T17:47:55;19.27;;;12.83;;
12469;SDS011;36499;46.484;13.832;2023-01-06T19:53:58;17.30;;;9.60;;
12469;SDS011;36499;46.484;13.832;2023-01-06T19:56:28;14.60;;;9.07;;
12469;SDS011;36499;46.484;13.832;2023-01-06T19:59:00;16.70;;;9.23;;
12469;SDS011;36499;46.484;13.832;2023-01-06T20:01:37;18.17;;;11.80;;
12469;SDS011;36499;46.484;13.832;2023-01-06T20:04:09;17.43;;;10.47;;
12469;SDS011;36499;46.484;13.832;2023-01-06T20:06:43;15.80;;;9.90;;
12469;SDS011;36499;46.484;13.832;2023-01-06T20:09:12;15.80;;;9.80;;
12469;SDS011;36499;46.484;13.832;2023-01-06T20:11:39;14.87;;;9.83;;
12469;SDS011;36499;46.484;13.832;2023-01-06T20:14:07;16.97;;;9.80;;
12469;SDS011;36499;46.484;13.832;2023-01-06T20:16:34;15.13;;;9.83;;
12469;SDS011;36499;46.484;13.832;2023-01-06T20:19:02;18.80;;;11.00;;
12469;SDS011;36499;46.484;13.832;2023-01-06T20:21:29;14.50;;;9.70;;
12469;SDS011;36499;46.484;13.832;2023-01-06T20:23:57;18.33;;;9.90;;
12469;SDS011;36499;46.484;13.832;2023-01-06T20:26:25;15.27;;;9.33;;
12469;SDS011;36499;46.484;13.832;2023-01-06T20:28:52;16.53;;;10.03;;
12469;SDS011;36499;46.484;13.832;2023-01-06T20:31:19;19.07;;;10.90;;
12469;SDS011;36499;46.484;13.832;2023-01-06T20:33:46;17.90;;;9.90;;
12469;SDS011;36499;46.484;13.832;2023-01-06T20:36:13;15.07;;;10.37;;
12469;SDS011;36499;46.484;13.832;2023-01-06T20:38:41;15.30;;;9.30;;
12469;SDS011;36499;46.484;13.832;2023-01-06T20:41:08;14.13;;;8.07;;
12469;SDS011;36499;46.484;13.832;2023-01-06T20:43:37;15.90;;;10.43;;
12469;SDS011;36499;46.484;13.832;2023-01-06T20:46:05;18.60;;;11.00;;
12469;SDS011;36499;46.484;13.832;2023-01-06T20:48:32;15.20;;;10.73;;
12469;SDS011;36499;46.484;13.832;2023-01-06T20:50:59;17.30;;;10.77;;
12469;SDS011;36499;46.484;13.832;2023-01-06T20:53:26;17.80;;;10.37;;
12469;SDS011;36499;46.484;13.832;2023-01-06T20:55:53;21.73;;;14.67;;
12469;SDS011;36499;46.484;13.832;2023-01-06T20:58:21;14.87;;;10.03;;
12469;SDS011;36499;46.484;13.832;2023-01-06T21:00:49;18.73;;;10.87;;
12469;SDS011;36499;46.484;13.832;2023-01-06T21:03:16;18.70;;;11.27;;
12469;SDS011;36499;46.484;13.832;2023-01-06T21:05:43;17.20;;;10.57;;
12469;SDS011;36499;46.484;13.832;2023-01-06T21:08:10;19.30;;;11.00;;
12469;SDS011;36499;46.484;13.832;2023-01-06T21:10:39;19.10;;;11.13;;
12469;SDS011;36499;46.484;13.832;2023-01-06T21:13:06;18.80;;;10.77;;
12469;SDS011;36499;46.484;13.832;2023-01-06T21:15:33;15.93;;;9.53;;
12469;SDS011;36499;46.484;13.832;2023-01-06T21:18:02;20.37;;;11.90;;
12469;SDS011;36499;46.484;13.832;2023-01-06T21:20:29;18.53;;;9.50;;
12469;SDS011;36499;46.484;13.832;2023-01-06T21:22:56;18.33;;;10.03;;
12469;SDS011;36499;46.484;13.832;2023-01-06T21:25:24;18.17;;;12.07;;
12469;SDS011;36499;46.484;13.832;2023-01-06T21:27:51;16.50;;;9.90;;
12469;SDS011;36499;46.484;13.832;2023-01-06T21:30:18;17.30;;;9.30;;
12469;SDS011;36499;46.484;13.832;2023-01-06T21:32:45;13.90;;;8.60;;
12469;SDS011;36499;46.484;13.832;2023-01-06T21:35:14;12.10;;;7.53;;
12469;SDS011;36499;46.484;13.832;2023-01-06T21:37:41;12.87;;;8.73;;
12469;SDS011;36499;46.484;13.832;2023-01-06T21:40:09;15.40;;;8.50;;
12469;SDS011;36499;46.484;13.832;2023-01-06T21:42:39;13.43;;;8.33;;
12469;SDS011;36499;46.484;13.832;2023-01-06T21:45:24;13.10;;;8.33;;
12469;SDS011;36499;46.484;13.832;2023-01-06T21:47:51;11.10;;;7.27;;
12469;SDS011;36499;46.484;13.832;2023-01-06T21:50:19;10.43;;;6.70;;
12469;SDS011;36499;46.484;13.832;2023-01-06T21:52:47;10.93;;;6.97;;
12469;SDS011;36499;46.484;13.832;2023-01-06T21:55:16;12.40;;;7.27;;
12469;SDS011;36499;46.484;13.832;2023-01-06T21:57:43;10.37;;;6.60;;
12469;SDS011;36499;46.484;13.832;2023-01-06T22:00:11;10.27;;;6.47;;
12469;SDS011;36499;46.484;13.832;2023-01-06T22:02:39;11.37;;;6.53;;
12469;SDS011;36499;46.484;13.832;2023-01-06T22:05:07;12.30;;;6.10;;
12469;SDS011;36499;46.484;13.832;2023-01-06T22:07:37;10.47;;;6.00;;
12469;SDS011;36499;46.484;13.832;2023-01-06T22:10:09;10.03;;;5.80;;
12469;SDS011;36499;46.484;13.832;2023-01-06T22:12:40;9.47;;;6.03;;
12469;SDS011;36499;46.484;13.832;2023-01-06T22:15:11;9.00;;;5.47;;
12469;SDS011;36499;46.484;13.832;2023-01-06T22:17:40;8.87;;;5.40;;
12469;SDS011;36499;46.484;13.832;2023-01-06T22:20:08;7.70;;;5.53;;
12469;SDS011;36499;46.484;13.832;2023-01-06T22:22:39;9.10;;;5.60;;
12469;SDS011;36499;46.484;13.832;2023-01-06T22:25:07;7.97;;;5.23;;
12469;SDS011;36499;46.484;13.832;2023-01-06T22:27:34;10.33;;;5.50;;
12469;SDS011;36499;46.484;13.832;2023-01-06T22:30:02;9.70;;;6.20;;
12469;SDS011;36499;46.484;13.832;2023-01-06T22:32:30;10.00;;;5.07;;
12469;SDS011;36499;46.484;13.832;2023-01-06T22:34:57;7.47;;;5.10;;
12469;SDS011;36499;46.484;13.832;2023-01-06T22:37:25;10.67;;;5.63;;
12469;SDS011;36499;46.484;13.832;2023-01-06T22:39:54;10.07;;;6.17;;
12469;SDS011;36499;46.484;13.832;2023-01-06T22:42:21;8.40;;;5.57;;
12469;SDS011;36499;46.484;13.832;2023-01-06T22:44:48;10.73;;;6.67;;
12469;SDS011;36499;46.484;13.832;2023-01-06T22:47:15;8.20;;;5.47;;
12469;SDS011;36499;46.484;13.832;2023-01-06T22:49:42;9.70;;;5.83;;
12469;SDS011;36499;46.484;13.832;2023-01-06T22:52:10;7.13;;;4.77;;
12469;SDS011;36499;46.484;13.832;2023-01-06T22:54:37;7.67;;;5.00;;
12469;SDS011;36499;46.484;13.832;2023-01-06T22:57:06;7.70;;;4.97;;
12469;SDS011;36499;46.484;13.832;2023-01-06T22:59:33;8.33;;;4.73;;
12469;SDS011;36499;46.484;13.832;2023-01-06T23:02:00;5.17;;;3.80;;
12469;SDS011;36499;46.484;13.832;2023-01-06T23:04:27;7.33;;;5.00;;
12469;SDS011;36499;46.484;13.832;2023-01-06T23:06:54;7.50;;;5.60;;
12469;SDS011;36499;46.484;13.832;2023-01-06T23:09:21;6.73;;;5.23;;
12469;SDS011;36499;46.484;13.832;2023-01-06T23:11:48;9.87;;;5.77;;
12469;SDS011;36499;46.484;13.832;2023-01-06T23:14:17;9.37;;;5.83;;